Time;durP1;ratioP1;P1;durP2;ratioP2;P2;SDS_P1;SDS_P2;PMS_P1;PMS_P2;Temp;Humidity;BMP_temperature;BMP_pressure;BME280_temperature;BME280_humidity;BME280_pressure;Samples;Min_cycle;Max_cycle;Signal;HPM_P1;HPM_P2
2021/07/29 00:00:02;;;;;;;5.57;3.70;;;19.30;99.90;;;;;;5083296;28;20556;-86
2021/07/29 00:02:28;;;;;;;4.27;3.70;;;19.30;99.90;;;;;;5083647;28;20721;-86
2021/07/29 00:04:53;;;;;;;5.20;3.70;;;19.30;99.90;;;;;;5065892;28;20398;-86
2021/07/29 00:07:19;;;;;;;4.63;4.00;;;19.20;99.90;;;;;;5084385;28;20156;-86
2021/07/29 00:09:46;;;;;;;5.60;4.43;;;19.30;99.90;;;;;;5084028;28;20195;-86
2021/07/29 00:12:11;;;;;;;7.07;4.97;;;19.30;99.90;;;;;;5084070;28;20167;-86
2021/07/29 00:14:37;;;;;;;8.83;5.83;;;19.30;99.90;;;;;;5084135;28;20409;-86
2021/07/29 00:17:03;;;;;;;15.83;7.37;;;19.20;99.90;;;;;;5083760;28;20168;-86
2021/07/29 00:19:29;;;;;;;9.37;5.40;;;19.10;99.90;;;;;;5082572;28;20230;-85
2021/07/29 00:21:55;;;;;;;15.50;7.50;;;19.20;99.90;;;;;;5083242;28;20453;-86
2021/07/29 00:24:20;;;;;;;7.90;5.17;;;19.20;99.90;;;;;;5083882;28;20163;-86
2021/07/29 00:26:46;;;;;;;5.10;3.43;;;19.30;99.90;;;;;;5084772;28;20166;-85
2021/07/29 00:29:12;;;;;;;4.50;3.77;;;19.20;99.90;;;;;;5066341;28;20192;-86
2021/07/29 00:31:37;;;;;;;4.40;3.70;;;19.00;99.90;;;;;;5084219;28;20248;-86
2021/07/29 00:34:03;;;;;;;3.57;3.27;;;19.00;99.90;;;;;;5083271;28;20394;-86
2021/07/29 00:36:29;;;;;;;8.83;4.03;;;19.00;99.90;;;;;;5083973;28;20170;-86
2021/07/29 00:38:55;;;;;;;7.47;3.93;;;18.80;99.90;;;;;;5084557;28;20402;-86
2021/07/29 00:41:20;;;;;;;7.70;4.57;;;18.80;99.90;;;;;;5083613;28;20183;-86
2021/07/29 00:43:47;;;;;;;5.23;3.60;;;18.70;99.90;;;;;;5084240;28;20163;-86
2021/07/29 00:46:14;;;;;;;6.80;3.97;;;18.80;99.90;;;;;;5066165;28;20168;-86
2021/07/29 00:48:40;;;;;;;4.93;4.40;;;18.80;99.90;;;;;;5083849;28;20407;-86
2021/07/29 00:51:06;;;;;;;6.57;3.80;;;18.80;99.90;;;;;;5083372;28;20485;-86
2021/07/29 00:53:33;;;;;;;4.20;3.80;;;18.70;99.90;;;;;;5082776;28;20465;-86
2021/07/29 00:55:59;;;;;;;5.40;4.47;;;18.70;99.90;;;;;;5083744;28;20445;-86
2021/07/29 00:58:25;;;;;;;5.00;4.33;;;18.60;99.90;;;;;;5083128;28;20448;-86
2021/07/29 01:00:50;;;;;;;6.50;3.43;;;18.60;99.90;;;;;;5082503;28;20426;-86
2021/07/29 01:03:16;;;;;;;6.97;4.57;;;18.60;99.90;;;;;;5083373;28;20160;-86
2021/07/29 01:05:41;;;;;;;5.80;3.63;;;18.70;99.90;;;;;;5082240;28;20175;-86
2021/07/29 01:08:07;;;;;;;4.27;3.87;;;18.50;99.90;;;;;;5082359;28;20183;-86
2021/07/29 01:10:35;;;;;;;8.00;4.43;;;18.50;99.90;;;;;;5082060;28;20156;-86
2021/07/29 01:13:01;;;;;;;7.30;4.90;;;18.60;99.90;;;;;;5082841;28;20160;-86
2021/07/29 01:15:26;;;;;;;4.57;4.10;;;18.60;99.90;;;;;;5082582;28;20452;-85
2021/07/29 01:17:57;;;;;;;3.90;2.97;;;18.70;99.90;;;;;;5064084;28;20365;-86
2021/07/29 01:20:23;;;;;;;5.00;3.70;;;18.70;99.90;;;;;;5082760;28;20223;-86
2021/07/29 01:22:48;;;;;;;3.40;3.10;;;18.60;99.90;;;;;;5086380;28;20437;-86
2021/07/29 01:25:14;;;;;;;3.30;3.00;;;18.60;99.90;;;;;;5090907;28;20159;-85
2021/07/29 01:27:40;;;;;;;8.40;3.83;;;18.50;99.90;;;;;;5085662;28;20167;-86
2021/07/29 01:30:07;;;;;;;5.20;3.83;;;18.30;99.90;;;;;;5083040;28;20159;-86
2021/07/29 01:32:32;;;;;;;5.20;3.83;;;18.10;99.90;;;;;;5081190;28;20459;-86
2021/07/29 01:34:58;;;;;;;12.63;5.90;;;18.20;99.90;;;;;;5082137;28;20390;-86
2021/07/29 01:37:25;;;;;;;13.73;4.50;;;18.20;99.90;;;;;;5081931;28;20199;-85
2021/07/29 01:39:51;;;;;;;7.10;4.47;;;18.20;99.90;;;;;;5081036;28;20163;-86
2021/07/29 01:42:16;;;;;;;9.47;4.07;;;18.20;99.90;;;;;;5082552;28;20490;-86
2021/07/29 01:44:42;;;;;;;12.00;3.90;;;18.30;99.90;;;;;;5082716;28;20477;-85
2021/07/29 01:47:07;;;;;;;2.70;2.50;;;18.30;99.90;;;;;;5081935;28;20156;-86
2021/07/29 01:49:33;;;;;;;3.73;3.30;;;18.00;99.90;;;;;;5082199;28;20164;-86
2021/07/29 01:51:59;;;;;;;8.90;4.10;;;18.20;99.90;;;;;;5081948;28;20250;-86
2021/07/29 01:54:27;;;;;;;4.83;4.17;;;18.20;99.90;;;;;;5081824;28;20168;-86
2021/07/29 01:56:52;;;;;;;5.33;3.67;;;18.00;99.90;;;;;;5082473;28;20164;-86
2021/07/29 01:59:18;;;;;;;6.13;4.77;;;17.90;99.90;;;;;;5081454;28;20398;-86
2021/07/29 02:01:46;;;;;;;9.93;3.07;;;17.80;99.90;;;;;;5063753;28;20636;-86
2021/07/29 02:04:12;;;;;;;5.20;3.80;;;17.80;99.90;;;;;;5063217;28;20251;-86
2021/07/29 02:06:39;;;;;;;5.57;3.80;;;17.90;99.90;;;;;;5081425;28;20874;-86
2021/07/29 02:09:04;;;;;;;3.20;3.00;;;17.80;99.90;;;;;;5081643;28;20195;-86
2021/07/29 02:11:32;;;;;;;4.10;3.27;;;17.70;99.90;;;;;;5047142;28;20398;-85
2021/07/29 02:13:58;;;;;;;7.10;3.73;;;17.60;99.90;;;;;;5081324;28;20164;-86
2021/07/29 02:16:25;;;;;;;5.00;3.33;;;17.60;99.90;;;;;;5081711;28;20437;-86
2021/07/29 02:18:51;;;;;;;6.27;2.97;;;17.50;99.90;;;;;;5081892;28;20453;-86
2021/07/29 02:21:17;;;;;;;3.23;2.83;;;17.50;99.90;;;;;;5081632;28;20530;-86
2021/07/29 02:23:45;;;;;;;6.00;4.63;;;17.60;99.90;;;;;;5062960;28;20235;-86
2021/07/29 02:26:14;;;;;;;8.13;4.00;;;17.70;99.90;;;;;;5082685;28;20186;-86
2021/07/29 02:28:39;;;;;;;6.70;4.03;;;17.60;99.90;;;;;;5081262;28;20390;-86
2021/07/29 02:31:05;;;;;;;5.57;4.20;;;17.50;99.90;;;;;;5081916;28;20168;-86
2021/07/29 02:33:30;;;;;;;5.10;3.80;;;17.50;99.90;;;;;;5081332;28;20167;-86
2021/07/29 02:35:56;;;;;;;3.73;3.43;;;17.60;99.90;;;;;;5081352;28;20212;-86
2021/07/29 02:38:22;;;;;;;3.43;3.10;;;17.60;99.90;;;;;;5082412;28;20171;-86
2021/07/29 02:40:47;;;;;;;3.50;3.20;;;17.60;99.90;;;;;;5081151;28;20183;-86
2021/07/29 02:43:13;;;;;;;10.23;4.40;;;17.70;99.90;;;;;;5080269;28;20160;-86
2021/07/29 02:45:38;;;;;;;3.23;2.57;;;17.70;99.90;;;;;;5081420;28;20152;-86
2021/07/29 02:48:04;;;;;;;4.67;4.10;;;17.50;99.90;;;;;;5081576;28;20216;-86
2021/07/29 02:50:29;;;;;;;5.57;4.27;;;17.60;99.90;;;;;;5081383;28;20160;-85
2021/07/29 02:52:55;;;;;;;6.57;4.17;;;17.60;99.90;;;;;;5081529;28;20240;-86
2021/07/29 02:55:21;;;;;;;5.73;4.20;;;17.50;99.90;;;;;;5081357;28;20258;-86
2021/07/29 02:57:46;;;;;;;5.90;3.70;;;17.40;99.90;;;;;;5081258;28;20566;-86
2021/07/29 03:00:12;;;;;;;3.87;2.90;;;17.30;99.90;;;;;;5081135;28;20398;-86
2021/07/29 03:02:41;;;;;;;4.33;3.93;;;17.50;99.90;;;;;;5081200;28;20244;-86
2021/07/29 03:05:09;;;;;;;3.80;3.23;;;17.50;99.90;;;;;;5081777;28;20413;-86
2021/07/29 03:07:35;;;;;;;4.40;3.40;;;17.50;99.90;;;;;;5081769;28;20393;-86
2021/07/29 03:10:03;;;;;;;4.50;3.60;;;17.40;99.90;;;;;;5082242;28;20246;-86
2021/07/29 03:12:30;;;;;;;5.23;3.30;;;17.40;99.90;;;;;;5081930;28;20168;-86
2021/07/29 03:14:56;;;;;;;4.10;3.73;;;17.20;99.90;;;;;;5082310;28;20390;-86
2021/07/29 03:17:21;;;;;;;4.37;3.53;;;17.20;99.90;;;;;;5081987;28;20745;-86
2021/07/29 03:19:47;;;;;;;6.80;4.40;;;17.10;99.90;;;;;;5063648;28;20215;-86
2021/07/29 03:22:12;;;;;;;4.30;3.90;;;17.00;99.90;;;;;;5081635;28;20305;-86
2021/07/29 03:24:38;;;;;;;5.50;3.33;;;17.10;99.90;;;;;;5039886;28;20195;-86
2021/07/29 03:27:03;;;;;;;3.47;3.17;;;17.20;99.90;;;;;;5039817;28;20203;-86
2021/07/29 03:29:29;;;;;;;4.40;4.00;;;17.20;99.90;;;;;;5046854;28;20185;-86
2021/07/29 03:31:55;;;;;;;3.47;3.17;;;17.10;99.90;;;;;;5030241;28;20235;-86
2021/07/29 03:34:20;;;;;;;5.30;3.30;;;17.20;99.90;;;;;;5046371;28;20181;-86
2021/07/29 03:36:49;;;;;;;3.80;3.40;;;17.20;99.90;;;;;;5048285;28;20537;-85
2021/07/29 03:39:14;;;;;;;6.57;4.30;;;17.10;99.90;;;;;;5031136;28;20238;-86
2021/07/29 03:41:40;;;;;;;7.63;3.77;;;17.10;99.90;;;;;;5048690;28;20860;-83
2021/07/29 03:44:07;;;;;;;5.87;4.23;;;17.20;99.90;;;;;;5047611;28;20192;-85
2021/07/29 03:46:32;;;;;;;3.63;3.33;;;17.10;99.90;;;;;;5045908;28;20172;-86
2021/07/29 03:48:58;;;;;;;5.40;3.13;;;17.00;99.90;;;;;;5042397;28;20410;-86
2021/07/29 03:51:25;;;;;;;5.50;3.40;;;16.90;99.90;;;;;;5038549;28;20234;-87
2021/07/29 03:53:52;;;;;;;3.70;3.20;;;16.80;99.90;;;;;;5038206;28;20853;-87
2021/07/29 03:56:18;;;;;;;3.50;3.10;;;16.80;99.90;;;;;;5073819;28;20410;-87
2021/07/29 03:58:44;;;;;;;10.53;4.00;;;16.90;99.90;;;;;;5091434;28;20394;-84
2021/07/29 04:01:10;;;;;;;5.73;3.70;;;16.90;99.90;;;;;;5100251;28;20167;-83
2021/07/29 04:03:37;;;;;;;9.67;4.73;;;16.90;99.90;;;;;;5099501;28;20156;-83
2021/07/29 04:06:03;;;;;;;9.73;4.50;;;17.00;99.90;;;;;;5095454;28;20866;-86
2021/07/29 04:08:28;;;;;;;4.77;4.20;;;16.90;99.90;;;;;;5068364;28;20440;-86
2021/07/29 04:10:57;;;;;;;10.93;4.23;;;17.00;99.90;;;;;;5084843;28;20456;-86
2021/07/29 04:13:23;;;;;;;5.73;3.63;;;17.00;99.90;;;;;;5082859;28;20251;-86
2021/07/29 04:15:57;;;;;;;3.33;3.00;;;17.00;99.90;;;;;;5081197;28;20430;-85
2021/07/29 04:18:22;;;;;;;4.20;3.70;;;17.00;99.90;;;;;;5080813;28;20175;-86
2021/07/29 04:20:48;;;;;;;5.53;4.07;;;17.00;99.90;;;;;;5081412;28;20402;-84
2021/07/29 04:23:13;;;;;;;9.50;3.87;;;17.10;99.90;;;;;;5080601;28;20581;-85
2021/07/29 04:25:39;;;;;;;5.73;3.60;;;16.90;99.90;;;;;;5080628;28;20173;-84
2021/07/29 04:28:04;;;;;;;6.40;4.83;;;17.10;99.90;;;;;;5080594;28;20163;-85
2021/07/29 04:30:30;;;;;;;4.27;3.83;;;17.00;99.90;;;;;;5079325;28;20505;-85
2021/07/29 04:32:55;;;;;;;8.03;6.13;;;17.00;99.90;;;;;;5081482;28;20160;-86
2021/07/29 04:35:20;;;;;;;6.20;3.63;;;17.10;99.90;;;;;;5083167;28;20651;-86
2021/07/29 04:37:46;;;;;;;4.43;3.83;;;17.20;99.90;;;;;;5083944;28;20163;-85
2021/07/29 04:40:12;;;;;;;3.87;3.27;;;17.20;99.90;;;;;;5084401;28;20163;-86
2021/07/29 04:42:37;;;;;;;5.00;3.60;;;17.10;99.90;;;;;;5066294;28;20163;-86
2021/07/29 04:45:03;;;;;;;6.73;4.10;;;17.00;99.90;;;;;;5083885;28;20400;-87
2021/07/29 04:47:29;;;;;;;6.40;3.83;;;17.00;99.90;;;;;;5085235;28;20565;-86
2021/07/29 04:49:54;;;;;;;4.10;3.70;;;17.20;99.90;;;;;;5092549;28;20186;-86
2021/07/29 04:52:20;;;;;;;5.50;3.87;;;17.30;99.90;;;;;;5064349;28;20474;-86
2021/07/29 04:54:45;;;;;;;6.03;4.23;;;17.50;99.90;;;;;;5082536;28;20175;-86
2021/07/29 04:57:14;;;;;;;4.77;3.90;;;17.40;99.90;;;;;;5083083;28;20175;-85
2021/07/29 04:59:41;;;;;;;3.70;3.17;;;17.50;99.90;;;;;;5083083;28;20274;-86
2021/07/29 05:02:07;;;;;;;3.97;3.40;;;17.30;99.90;;;;;;5082913;28;20397;-86
2021/07/29 05:04:33;;;;;;;7.80;3.67;;;17.40;99.90;;;;;;5083277;28;20473;-86
2021/07/29 05:06:59;;;;;;;5.80;3.50;;;17.30;99.90;;;;;;5083150;28;20492;-86
2021/07/29 05:09:24;;;;;;;3.40;3.10;;;17.50;99.90;;;;;;5089601;28;20457;-84
2021/07/29 05:11:50;;;;;;;4.93;4.13;;;17.40;99.90;;;;;;5094453;28;20704;-85
2021/07/29 05:14:15;;;;;;;4.90;3.90;;;17.50;99.90;;;;;;5087645;28;20246;-86
2021/07/29 05:16:41;;;;;;;6.23;4.30;;;17.50;99.90;;;;;;5087698;28;20155;-85
2021/07/29 05:19:06;;;;;;;6.00;3.50;;;17.50;99.90;;;;;;5091273;28;20227;-86
2021/07/29 05:21:32;;;;;;;4.90;4.27;;;17.60;99.90;;;;;;5105247;28;20516;-85
2021/07/29 05:23:57;;;;;;;4.90;4.40;;;17.60;99.90;;;;;;5104255;28;20201;-85
2021/07/29 05:26:24;;;;;;;3.63;3.33;;;17.50;99.90;;;;;;5104944;28;20159;-85
2021/07/29 05:28:50;;;;;;;4.60;4.20;;;17.60;99.90;;;;;;5104222;28;20177;-85
2021/07/29 05:31:15;;;;;;;7.03;4.13;;;17.90;99.90;;;;;;5103138;28;20453;-85
2021/07/29 05:33:44;;;;;;;6.00;4.03;;;17.90;99.90;;;;;;5084218;28;20175;-85
2021/07/29 05:36:09;;;;;;;4.03;3.63;;;17.80;99.90;;;;;;5106098;28;20170;-83
2021/07/29 05:38:35;;;;;;;28.10;5.10;;;17.80;99.90;;;;;;5117012;28;20456;-83
2021/07/29 05:41:09;;;;;;;7.20;4.50;;;18.10;99.90;;;;;;5117475;28;20170;-83
2021/07/29 05:43:36;;;;;;;3.10;2.80;;;18.30;99.90;;;;;;5099330;28;20163;-83
2021/07/29 05:46:02;;;;;;;5.30;4.80;;;18.30;99.90;;;;;;5118116;28;20425;-86
2021/07/29 05:48:27;;;;;;;7.83;3.50;;;18.40;99.90;;;;;;5112339;28;20420;-85
2021/07/29 05:50:56;;;;;;;4.23;3.83;;;18.40;99.90;;;;;;5101443;28;20482;-86
2021/07/29 05:53:23;;;;;;;3.47;3.10;;;18.40;99.90;;;;;;5103346;28;20205;-86
2021/07/29 05:55:49;;;;;;;4.20;3.23;;;18.60;99.90;;;;;;5077593;28;20460;-85
2021/07/29 05:58:15;;;;;;;4.37;4.00;;;18.60;99.90;;;;;;5082995;28;20874;-85
2021/07/29 06:00:40;;;;;;;6.23;3.63;;;18.70;99.90;;;;;;5099733;28;20162;-85
2021/07/29 06:03:06;;;;;;;4.13;3.50;;;18.80;99.90;;;;;;5085802;28;20175;-84
2021/07/29 06:05:32;;;;;;;7.27;3.80;;;18.70;99.90;;;;;;5086670;28;20208;-86
2021/07/29 06:07:57;;;;;;;4.07;3.77;;;18.90;99.90;;;;;;5086191;28;20905;-85
2021/07/29 06:10:24;;;;;;;5.07;3.00;;;18.80;99.90;;;;;;5086309;28;20161;-85
2021/07/29 06:12:49;;;;;;;4.43;3.50;;;18.80;99.90;;;;;;5085807;28;20158;-85
2021/07/29 06:15:15;;;;;;;4.23;3.80;;;19.00;99.90;;;;;;5084600;28;20460;-85
2021/07/29 06:17:44;;;;;;;3.60;3.30;;;19.30;99.90;;;;;;5103809;28;20322;-84
2021/07/29 06:20:10;;;;;;;6.10;3.90;;;19.50;99.90;;;;;;5106097;28;20320;-85
2021/07/29 06:22:35;;;;;;;4.23;3.40;;;19.40;99.90;;;;;;5106841;28;20425;-85
2021/07/29 06:25:06;;;;;;;3.93;3.63;;;19.40;99.90;;;;;;5109456;28;20208;-84
2021/07/29 06:27:31;;;;;;;3.33;3.03;;;19.60;99.90;;;;;;5091787;28;20175;-84
2021/07/29 06:29:57;;;;;;;4.67;3.37;;;19.40;99.90;;;;;;5104487;28;20493;-84
2021/07/29 06:32:22;;;;;;;3.90;3.20;;;19.50;99.90;;;;;;5087721;28;20203;-84
2021/07/29 06:34:48;;;;;;;3.63;3.30;;;19.40;99.90;;;;;;5081052;28;20174;-84
2021/07/29 06:37:13;;;;;;;4.73;3.80;;;19.40;99.90;;;;;;5086184;28;20162;-84
2021/07/29 06:39:39;;;;;;;3.63;2.90;;;19.50;99.90;;;;;;5102227;28;20234;-84
2021/07/29 06:42:04;;;;;;;5.00;3.97;;;19.70;99.90;;;;;;5087744;28;20194;-84
2021/07/29 06:44:30;;;;;;;3.67;3.37;;;19.60;99.90;;;;;;5105260;28;20194;-84
2021/07/29 06:46:56;;;;;;;3.60;3.30;;;19.60;99.90;;;;;;5086098;28;20166;-85
2021/07/29 06:49:27;;;;;;;4.10;3.70;;;19.90;99.90;;;;;;5098561;28;20170;-84
2021/07/29 06:51:53;;;;;;;4.57;3.50;;;20.00;99.90;;;;;;5058348;28;20202;-85
2021/07/29 06:54:18;;;;;;;3.37;3.10;;;20.10;99.90;;;;;;5086481;28;20432;-85
2021/07/29 06:56:44;;;;;;;3.17;2.87;;;19.80;99.90;;;;;;5104680;28;20173;-85
2021/07/29 06:59:10;;;;;;;5.73;3.40;;;20.00;99.90;;;;;;5075318;28;20201;-84
2021/07/29 07:01:35;;;;;;;7.40;4.00;;;19.80;99.90;;;;;;5097297;28;20865;-84
2021/07/29 07:04:01;;;;;;;3.43;3.13;;;19.90;99.90;;;;;;5104086;28;20186;-84
2021/07/29 07:06:26;;;;;;;4.10;3.63;;;20.10;99.90;;;;;;5099492;28;20178;-84
2021/07/29 07:08:52;;;;;;;4.43;3.17;;;20.10;99.90;;;;;;5090546;28;20210;-85
2021/07/29 07:11:18;;;;;;;10.10;3.00;;;20.10;99.90;;;;;;5104133;28;20198;-85
2021/07/29 07:13:45;;;;;;;6.20;3.80;;;20.10;99.90;;;;;;5098872;28;20174;-83
2021/07/29 07:16:12;;;;;;;3.63;3.33;;;20.30;99.90;;;;;;5079649;28;20437;-82
2021/07/29 07:18:38;;;;;;;3.03;2.80;;;20.20;99.90;;;;;;5106617;28;20421;-84
2021/07/29 07:21:06;;;;;;;4.40;3.30;;;20.30;99.90;;;;;;5111621;28;20424;-84
2021/07/29 07:23:32;;;;;;;3.67;3.27;;;20.30;99.90;;;;;;5113598;28;20425;-84
2021/07/29 07:25:57;;;;;;;3.73;2.77;;;20.40;99.90;;;;;;5085812;28;20504;-84
2021/07/29 07:28:23;;;;;;;3.70;3.03;;;20.70;99.90;;;;;;5103821;28;20174;-84
2021/07/29 07:30:49;;;;;;;3.20;2.80;;;20.90;99.90;;;;;;5077029;28;20629;-84
2021/07/29 07:33:16;;;;;;;4.77;3.17;;;20.60;99.90;;;;;;5090232;28;20449;-84
2021/07/29 07:35:42;;;;;;;3.37;2.77;;;21.00;99.90;;;;;;5101512;28;20595;-84
2021/07/29 07:38:13;;;;;;;3.90;2.83;;;21.20;99.90;;;;;;5085951;28;20466;-84
2021/07/29 07:40:39;;;;;;;3.60;2.73;;;21.00;99.90;;;;;;5051313;28;20217;-86
2021/07/29 07:43:04;;;;;;;3.90;3.00;;;20.90;99.90;;;;;;5062756;28;20803;-84
2021/07/29 07:45:31;;;;;;;3.20;2.90;;;21.10;99.90;;;;;;5053053;28;20171;-84
2021/07/29 07:47:57;;;;;;;5.33;3.07;;;21.40;99.90;;;;;;5080610;28;20212;-85
2021/07/29 07:50:22;;;;;;;4.50;3.20;;;21.40;99.90;;;;;;5108501;28;20413;-85
2021/07/29 07:52:48;;;;;;;3.80;2.90;;;21.10;99.90;;;;;;5105722;28;20190;-85
2021/07/29 07:55:14;;;;;;;4.27;2.73;;;21.10;99.90;;;;;;5084915;28;20196;-85
2021/07/29 07:57:39;;;;;;;8.60;3.10;;;21.50;99.90;;;;;;5073444;28;20217;-85
2021/07/29 08:00:05;;;;;;;6.40;3.47;;;21.30;99.90;;;;;;5086932;28;20438;-84
2021/07/29 08:02:31;;;;;;;5.20;3.30;;;21.30;99.90;;;;;;5073962;28;20290;-84
2021/07/29 08:04:57;;;;;;;4.20;2.80;;;20.90;99.90;;;;;;5082903;28;20430;-85
2021/07/29 08:07:22;;;;;;;4.10;2.90;;;20.70;99.90;;;;;;5108294;28;20518;-85
2021/07/29 08:09:48;;;;;;;5.17;2.83;;;20.80;99.90;;;;;;5089991;28;20190;-83
2021/07/29 08:12:14;;;;;;;4.73;3.30;;;21.10;99.90;;;;;;5057526;28;20191;-85
2021/07/29 08:14:41;;;;;;;4.53;2.87;;;21.30;99.90;;;;;;5088226;28;20871;-85
2021/07/29 08:17:07;;;;;;;4.17;3.27;;;21.50;99.90;;;;;;5113191;28;20189;-83
2021/07/29 08:19:33;;;;;;;3.80;3.40;;;21.40;99.90;;;;;;5054523;28;20536;-82
2021/07/29 08:21:59;;;;;;;3.00;2.47;;;21.60;99.90;;;;;;5111437;28;20213;-84
2021/07/29 08:24:26;;;;;;;7.07;3.10;;;21.60;99.90;;;;;;5113526;28;20616;-84
2021/07/29 08:26:52;;;;;;;3.63;3.20;;;21.30;99.90;;;;;;5105661;28;20420;-85
2021/07/29 08:29:17;;;;;;;3.77;3.23;;;21.20;99.90;;;;;;5097278;28;20455;-84
2021/07/29 08:31:43;;;;;;;4.90;3.23;;;21.80;99.90;;;;;;5107245;28;20343;-83
2021/07/29 08:34:11;;;;;;;4.10;3.17;;;21.80;99.90;;;;;;5098179;28;20538;-83
2021/07/29 08:36:36;;;;;;;5.23;4.47;;;21.80;99.90;;;;;;5102147;28;20429;-84
2021/07/29 08:39:02;;;;;;;3.90;3.40;;;21.80;99.90;;;;;;5118615;28;20425;-84
2021/07/29 08:41:27;;;;;;;6.30;4.23;;;21.60;99.90;;;;;;5098977;28;20177;-84
2021/07/29 08:43:53;;;;;;;11.80;2.90;;;21.50;99.90;;;;;;5088841;28;20174;-86
2021/07/29 08:46:20;;;;;;;3.27;2.97;;;21.30;99.90;;;;;;5106729;28;20206;-85
2021/07/29 08:48:49;;;;;;;5.00;3.37;;;21.40;99.90;;;;;;5108139;28;20236;-85
2021/07/29 08:51:16;;;;;;;6.30;3.80;;;21.70;99.90;;;;;;5088686;28;20456;-84
2021/07/29 08:53:42;;;;;;;5.27;3.20;;;21.80;99.90;;;;;;5066306;28;20426;-83
2021/07/29 08:56:12;;;;;;;3.80;3.37;;;22.00;99.90;;;;;;5088550;28;20423;-84
2021/07/29 08:58:38;;;;;;;3.60;3.30;;;22.20;99.90;;;;;;5068608;28;20222;-83
2021/07/29 09:01:09;;;;;;;3.87;3.20;;;22.00;99.90;;;;;;5061061;28;20760;-86
2021/07/29 09:03:35;;;;;;;4.03;3.20;;;22.20;99.90;;;;;;5099080;28;20167;-85
2021/07/29 09:06:05;;;;;;;5.50;3.13;;;22.10;99.90;;;;;;5103929;28;20474;-85
2021/07/29 09:08:45;;;;;;;4.33;3.17;;;22.10;99.90;;;;;;5088122;28;20623;-83
2021/07/29 09:11:35;;;;;;;4.63;3.90;;;21.80;99.90;;;;;;5105628;28;20521;-82
2021/07/29 09:14:10;;;;;;;3.13;2.87;;;21.80;99.90;;;;;;5062759;28;20586;-85
2021/07/29 09:16:54;;;;;;;3.63;3.33;;;21.60;99.90;;;;;;5036782;28;20438;-85
2021/07/29 09:19:39;;;;;;;3.20;2.70;;;21.70;99.90;;;;;;5025342;28;20465;-84
2021/07/29 09:22:19;;;;;;;3.70;3.40;;;21.70;99.90;;;;;;5044281;28;20426;-85
2021/07/29 09:25:13;;;;;;;3.87;2.80;;;22.00;99.90;;;;;;5045246;28;20434;-85
2021/07/29 09:27:45;;;;;;;3.13;2.80;;;22.20;99.90;;;;;;5051036;28;20466;-85
2021/07/29 09:30:27;;;;;;;5.50;3.47;;;22.10;99.90;;;;;;5060166;28;20430;-85
2021/07/29 09:33:06;;;;;;;10.10;3.53;;;22.00;99.90;;;;;;5063006;28;20457;-85
2021/07/29 09:35:50;;;;;;;2.93;2.63;;;22.20;99.90;;;;;;5063276;28;20548;-85
2021/07/29 09:38:31;;;;;;;2.93;2.63;;;22.20;99.90;;;;;;5045183;28;20422;-85
2021/07/29 09:41:06;;;;;;;3.20;2.90;;;22.30;99.90;;;;;;5057661;28;20452;-85
2021/07/29 09:43:35;;;;;;;3.60;3.30;;;22.00;99.90;;;;;;5018170;28;20495;-84
2021/07/29 09:46:03;;;;;;;3.80;3.40;;;22.30;99.90;;;;;;5083633;28;20463;-85
2021/07/29 09:48:29;;;;;;;4.63;3.10;;;22.40;99.90;;;;;;5083744;28;20423;-85
2021/07/29 09:50:58;;;;;;;4.23;3.10;;;22.40;99.90;;;;;;5107123;28;20452;-85
2021/07/29 09:53:24;;;;;;;3.67;3.37;;;22.10;99.90;;;;;;5077936;28;20167;-85
2021/07/29 09:55:51;;;;;;;2.63;2.43;;;22.30;99.90;;;;;;5108865;28;20447;-85
2021/07/29 09:58:17;;;;;;;3.10;2.90;;;22.70;99.90;;;;;;5104869;28;20418;-85
2021/07/29 10:00:43;;;;;;;3.77;2.77;;;23.10;99.90;;;;;;5096057;28;20431;-84
2021/07/29 10:03:29;;;;;;;4.43;2.90;;;23.30;99.90;;;;;;5101984;28;20249;-85
2021/07/29 10:06:01;;;;;;;3.53;3.23;;;23.30;99.90;;;;;;5071153;28;20438;-86
2021/07/29 10:08:32;;;;;;;3.47;3.00;;;23.30;99.90;;;;;;5032424;28;20884;-85
2021/07/29 10:11:00;;;;;;;4.50;3.70;;;23.00;99.90;;;;;;5048744;28;21019;-85
2021/07/29 10:13:34;;;;;;;4.83;3.50;;;23.30;99.90;;;;;;5031567;28;20421;-85
2021/07/29 10:15:59;;;;;;;4.83;3.67;;;23.30;99.90;;;;;;5045118;28;20434;-85
2021/07/29 10:18:25;;;;;;;4.00;3.37;;;23.40;99.90;;;;;;5048644;28;20423;-85
2021/07/29 10:21:30;;;;;;;5.27;3.90;;;23.40;99.90;;;;;;5079645;28;20225;-86
2021/07/29 10:23:59;;;;;;;6.83;3.57;;;23.30;99.90;;;;;;5078374;28;20195;-85
2021/07/29 10:26:26;;;;;;;6.13;3.97;;;22.70;99.90;;;;;;5030153;28;20435;-84
2021/07/29 10:29:22;;;;;;;3.83;3.40;;;22.90;99.90;;;;;;5062723;28;20926;-85
2021/07/29 10:31:51;;;;;;;3.97;3.00;;;22.90;99.90;;;;;;5065828;28;20454;-85
2021/07/29 10:34:33;;;;;;;3.40;3.10;;;23.20;99.90;;;;;;5027786;28;20418;-84
2021/07/29 10:37:00;;;;;;;4.73;3.63;;;23.30;99.90;;;;;;5054470;28;20453;-85
2021/07/29 10:39:27;;;;;;;10.90;3.73;;;23.20;99.90;;;;;;5100864;28;20462;-85
2021/07/29 10:41:55;;;;;;;3.57;3.17;;;23.00;99.90;;;;;;5104156;28;20507;-85
2021/07/29 10:44:44;;;;;;;6.60;3.17;;;23.20;99.90;;;;;;5065600;28;20437;-85
2021/07/29 10:47:14;;;;;;;4.37;2.90;;;23.50;99.90;;;;;;5060555;28;20902;-85
2021/07/29 10:50:11;;;;;;;3.70;3.30;;;23.40;99.90;;;;;;5102292;28;20428;-86
2021/07/29 10:52:37;;;;;;;4.00;3.60;;;23.70;99.90;;;;;;5091087;28;20521;-86
2021/07/29 10:55:04;;;;;;;3.87;3.17;;;23.90;99.90;;;;;;5085209;28;20421;-86
2021/07/29 10:57:30;;;;;;;3.90;3.50;;;24.20;99.90;;;;;;5103999;28;20408;-84
2021/07/29 10:59:57;;;;;;;3.63;3.17;;;24.00;99.90;;;;;;5104201;28;20425;-85
2021/07/29 11:02:38;;;;;;;5.20;3.57;;;24.00;99.90;;;;;;5086756;28;20416;-85
2021/07/29 11:05:07;;;;;;;3.20;2.90;;;24.00;99.90;;;;;;5101852;28;20420;-85
2021/07/29 11:07:32;;;;;;;4.63;3.67;;;24.30;99.90;;;;;;5076033;28;20429;-85
2021/07/29 11:10:05;;;;;;;3.17;2.87;;;24.10;99.90;;;;;;5088992;28;20469;-86
2021/07/29 11:12:32;;;;;;;4.37;3.80;;;24.00;99.90;;;;;;5102797;28;20448;-86
2021/07/29 11:14:59;;;;;;;3.47;3.17;;;23.80;99.90;;;;;;5078773;28;20421;-86
2021/07/29 11:17:25;;;;;;;4.60;3.27;;;23.30;99.90;;;;;;5079492;28;20523;-86
2021/07/29 11:19:50;;;;;;;3.33;2.57;;;23.70;99.90;;;;;;5090819;28;20468;-85
2021/07/29 11:22:16;;;;;;;5.27;3.47;;;23.50;99.90;;;;;;5110137;28;20415;-85
2021/07/29 11:24:43;;;;;;;4.90;3.77;;;23.60;99.90;;;;;;5108711;28;20226;-86
2021/07/29 11:27:13;;;;;;;3.17;2.97;;;23.60;99.90;;;;;;5087095;28;20179;-86
2021/07/29 11:29:55;;;;;;;3.70;3.00;;;23.50;99.90;;;;;;5088230;28;20744;-85
2021/07/29 11:32:21;;;;;;;5.30;3.40;;;23.40;99.90;;;;;;5088247;28;20460;-86
2021/07/29 11:34:56;;;;;;;3.93;3.53;;;24.00;99.90;;;;;;5088875;28;20498;-85
2021/07/29 11:37:21;;;;;;;4.63;3.40;;;24.20;99.90;;;;;;5107565;28;20431;-85
2021/07/29 11:39:47;;;;;;;3.77;3.47;;;24.60;99.90;;;;;;5073601;28;20429;-85
2021/07/29 11:42:13;;;;;;;4.30;3.90;;;24.20;99.90;;;;;;5102767;28;20199;-86
2021/07/29 11:44:44;;;;;;;4.50;3.27;;;24.40;99.90;;;;;;5076463;28;20171;-86
2021/07/29 11:47:10;;;;;;;3.20;2.77;;;24.40;99.90;;;;;;5090740;28;20606;-85
2021/07/29 11:49:48;;;;;;;4.20;3.33;;;24.10;99.90;;;;;;5108791;28;20429;-85
2021/07/29 11:52:15;;;;;;;3.13;2.83;;;23.90;99.90;;;;;;5089280;28;20452;-86
2021/07/29 11:54:41;;;;;;;3.50;2.87;;;24.30;99.90;;;;;;5106200;28;20400;-86
2021/07/29 11:57:07;;;;;;;3.53;2.87;;;24.40;99.90;;;;;;5087772;28;20417;-85
2021/07/29 11:59:38;;;;;;;3.60;3.10;;;24.30;99.90;;;;;;5109194;28;20400;-85
2021/07/29 12:02:05;;;;;;;9.17;3.17;;;24.40;99.90;;;;;;5090978;28;20430;-84
2021/07/29 12:04:37;;;;;;;3.43;3.13;;;24.30;99.90;;;;;;5089799;28;20440;-86
2021/07/29 12:07:03;;;;;;;3.43;3.13;;;24.10;99.90;;;;;;5090263;28;20416;-86
2021/07/29 12:09:33;;;;;;;2.90;2.60;;;23.70;99.90;;;;;;5102873;28;20571;-86
2021/07/29 12:12:00;;;;;;;3.10;2.80;;;24.10;99.90;;;;;;5102338;28;20448;-85
2021/07/29 12:14:26;;;;;;;4.70;3.90;;;24.30;99.90;;;;;;5090145;28;20451;-85
2021/07/29 12:16:53;;;;;;;3.77;2.97;;;25.10;99.90;;;;;;5107001;28;20424;-85
2021/07/29 12:19:22;;;;;;;4.53;3.53;;;25.60;99.90;;;;;;5107612;28;20225;-85
2021/07/29 12:21:49;;;;;;;4.03;3.07;;;26.60;99.80;;;;;;5089557;28;20510;-86
2021/07/29 12:24:15;;;;;;;3.60;3.30;;;26.90;97.50;;;;;;5090402;28;20527;-85
2021/07/29 12:27:01;;;;;;;4.10;3.10;;;26.40;97.20;;;;;;5085137;28;20412;-85
2021/07/29 12:29:41;;;;;;;3.87;3.07;;;26.70;95.60;;;;;;5084466;28;20502;-85
2021/07/29 12:32:22;;;;;;;3.47;3.17;;;27.70;94.40;;;;;;5094275;28;20512;-85
2021/07/29 12:34:49;;;;;;;4.77;3.17;;;28.00;92.20;;;;;;5094169;28;20444;-85
2021/07/29 12:37:36;;;;;;;4.03;3.63;;;27.80;91.60;;;;;;5108295;28;20875;-85
2021/07/29 12:40:22;;;;;;;4.27;3.37;;;28.50;88.70;;;;;;5072602;28;20427;-86
2021/07/29 12:42:51;;;;;;;4.67;4.27;;;27.70;84.90;;;;;;5078112;28;20444;-86
2021/07/29 12:45:17;;;;;;;4.20;3.90;;;27.70;86.10;;;;;;5093871;28;20824;-85
2021/07/29 12:48:03;;;;;;;3.77;3.47;;;26.70;90.30;;;;;;5091695;28;20503;-85